Dutch
Home     News     Corporate     Events & Tours     Flight ops     Crew centre      
My transavia virtual    Join us    Last logs    Who is flying    Software    Training    VRTS     
 

view flightdata
view flightplan
view OFP
view flightlog



flightdata:
pilot: Tom Roek
flight: TRA3K
from: EIDW (Dublin)
to: EHRD (Rotterdam)
date: 13-09-2020
departure: 19:02z
arrival: 20:22z
duration: 1:20
aircraft: B738 (PHHSI)
distance: 447 NM
touchdown: -150 ft/m @ 141 KIAS



flightplan:
-(FPL-TRA3K-IS
-B738/M-SDEEFGIRWXY/LB1
-EIDW1917
-N0446F370 LIFFY Q36 ALAVA Z195 MALUD UL975 WAL M16 DOLAS L603 LAMSO
-EHRD0111 EHAM
-PBN/A1B1D1O1S1 DOF/200913 REG/PHHSI EET/EGTT0009 EHAA0051 SEL/GQBC RVR/200 OPR/TRA)



operational flightplan (OFP):
DISPATCH BRIEFING (TEL:
--------- --------- --------- --------- --------- --------- ---------  
PREDEPARTURE ATC CLEARANCE:
.
.
--------- --------- --------- --------- --------- --------- ---------  
OFP  1    13 SEP 20/19:02
                                    OBS  3016

TRA3K      C/S TRA5575  EIDW/DUB   EHRD/RTM         CRZ SYS     CI 10
13 SEP 20  PH-HSI       1700/1700  1821/1826        GND DIST      451
B737-800 CFTAB:.....    CTOT:....  STA  1825        AIR DIST      451
                                                    AVG W/C         0
MAXIMUM    ZFW  62731  LAW  66360  TOW  75975       AVG ISA       M12
ESTIMATED  ZFW  57937  LAW  60497  TOW  63510       F-F FACTOR    0.0
ACTUAL     ZFW  .....  LAW  .....  TOW  .....
--------- --------- --------- --------- --------- --------- ---------
TRIP        3013   0111           .....  .....
CONT         181   0005           .....  .....
ALTN         545   0012  EHAM     .....  .....  ....
FINAL       1085   0030           .....  .....
ADDNL        749   0021           .....  .....
TANKERING                  
PLN TOF     4824   0158
DIFF        ....   ....
PLN TOF     ....   ....  (CORRECTED)   
EXTRA          0   ....                  
TOF         4824   ....                 
TAXI         200   ....                  
BLOCK       5773   ....        
--------- --------- --------- --------- --------- --------- ---------
REASON EXTRA FUEL      MATRIX FUEL:
O ECN-ECONAMICAL     O TMP-TEMPORARILY      O ATC-AIR TRAFFIC CNTRL
O FOB-FUEL ON.BOARD  O MSC-MISCELLANEOUS    O FPC-FLIGHT PLN CORR
O WXR-WEATHER        O TEC-TECHNICAL        ACT.CI/CRZ USED: . . .   

--------- --------- --------- --------- --------- --------- ---------

ZFW ZFW 1000 : PLN TOF   XXXXX/TRIP XXXXX 00 MIN HOLD DEST: 0 EXTRA
ZFW ZFW-1000 : PLN TOF   XXXXX/TRIP XXXXX
--------- --------- --------- --------- --------- --------- ---------
COMMANDERS NAME:                           SIGNATURE:

--------- --------- --------- --------- --------- --------- ---------
FROM:  EIDW ELEV242      TO: EHRD ELEV-14        ALTN: EHAM ELEV -11
ATC C/S     : TRA55TRA3K              AVG ISA : M12
CO-ROUTE    :                        AVG TT  :   
FMC-RES FUEL: 1630                   AVG W/C :    0
CRZ ALT     : FL370                  FL310
CI          : CI 10                  FL200     360/000
                                     FL100

EIDW/28  N0446F370 LIFY5A LIFFY Q36 ALAVA Z195 MALUD UL975 WAL M16
DOLAS L603 LAMSO LAMS2R EHRD/24

--------- --------- --------- --------- --------- --------- ---------
.
.
--------- --------- --------- --------- --------- --------- ---------
RVSM ALT CHECK:  FL:...... LEFT: ...... STBY: ...... RIGHT: ......

--------- --------- --------- --------- --------- --------- ---------
DESTINATION ALTERNATE EHAM
--------- --------- --------- --------- --------- --------- ---------

--------- --------- --------- --------- --------- --------- ---------
--------- --------- --------- --------- --------- --------- ---------
ALTERNATE SUMMARY
--------- --------- --------- --------- --------- --------- ---------
      ALTN        DIST   LVL       WC TIME  FUEL VIA
      EHAM/27       36  FL050    0 0012   545 AMS
INFO/EBOS/26       78  FL120    0 0019   881 COST1B COA COA4A
INFO/EBBR/25L      86  FL140    0 0021   949 WOOD1B WOODY WODY7A
INFO/EHGG/23      133  FL210    0 0028  1259 ANDI1B ANDIK N873 GRONY
                                           GRON1G
--------- --------- --------- --------- --------- --------- ---------

-(FPL-TRA3K-IS
-B738/M-SDE2E3FGIRWXY/LB1
-EIDW1917
-N0446F370 LIFFY Q36 ALAVA Z195 MALUD UL975 WAL M16 DOLAS L603 LAMSO
-EHRD0111 EHAM
-PBN/A1B1D1O1S1 DOF/200913 REG/PHHSI EET/EGTT0009 EHAA0051 SEL/GQBC RVR/200 OPR/TRA)

WEATHER BRIEFING - GENERATED 13 SEP 2020 19:02 UTC
--------------------------------------------------------------------------------

EIDW EHRD EHAM EBOS EBBR EHGG

--------------------------------------------------------------------------------
ORIGIN: EIDW (DUBLIN)
--------------------------------------------------------------------------------
EIDW 131830Z 22005KT 160V280 9999 FEW024 18/12 Q1018 NOSIG

EIDW 131700Z 1318/1418 24012KT 9999 SCT020
      BECMG 1320/1322 VRB03KT PROB30
      TEMPO 1401/1407 3000 BR
      BECMG 1409/1411 13008KT


--------------------------------------------------------------------------------
DESTINATION: EHRD (ROTTERDAM)
--------------------------------------------------------------------------------
EHRD 131855Z AUTO 00000KT 9999 NCD 17/15 Q1024 NOSIG

EHRD 131716Z 1318/1424 VRB03KT CAVOK
      BECMG 1322/1401 6000 MIFG PROB40 1401/1406 1400 BCFG
      BECMG 1405/1407 12006KT CAVOK


--------------------------------------------------------------------------------
ALTERNATE: EHAM (SCHIPHOL)
--------------------------------------------------------------------------------
EHAM 131855Z 20006KT CAVOK 16/13 Q1024 NOSIG

EHAM 131716Z 1318/1424 18005KT CAVOK
      BECMG 1322/1401 6000 MIFG PROB30
      TEMPO 1401/1406 1200 BCFG
      BECMG 1405/1407 13005KT CAVOK


--------------------------------------------------------------------------------
ALTERNATE: EBOS (OSTEND)
--------------------------------------------------------------------------------
EBOS 131850Z 00000KT CAVOK 16/15 Q1025 NOSIG

EBOS 131710Z 1318/1424 30005KT CAVOK PROB30
      TEMPO 1403/1406 3500 BR MIFG


--------------------------------------------------------------------------------
ALTERNATE: EBBR (BRUSSELS)
--------------------------------------------------------------------------------
EBBR 131850Z VRB01KT CAVOK 19/12 Q1025 NOSIG

EBBR 131710Z 1318/1424 VRB03KT CAVOK=  EDDF 131700Z 1318/1424 04003KT CAVOK
      BECMG 1409/1411 10006KT
      BECMG 1417/1419 VRB03KT


--------------------------------------------------------------------------------
ALTERNATE: EHGG (GRONINGEN)
--------------------------------------------------------------------------------
EHGG 131855Z AUTO 20003KT 9999 NCD 15/14 Q1024 NOSIG

EHGG 131710Z 1318/1424 21005KT CAVOK
      BECMG 1321/1324 6000 MIFG
      TEMPO 1400/1406 1500 BCFG
      BECMG 1405/1407 CAVOK
      BECMG 1421/1424 5000 MIFG BR PROB40 1422/1424 1500 BCFG


NOTAM BRIEFING - GENERATED 13 SEP 2020 19:02 UTC
--------------------------------------------------------------------------------

EIDW EHRD EHAM EHAM EBOS EBBR EHGG

--------------------------------------------------------------------------------
GLOBAL TRANSAVIA.COM VIRTUAL NOTAMS
--------------------------------------------------------------------------------
REF:NIL PLEASE CONTACT OPERATIONS IN CASE OF STRUCTURAL FLIGHTPLAN ERRORS ON FLIGHT-OPS@TRANSAVIA-VIRTUAL.COM
VALID:UFN

REF:NIL
PLEASE CHECK ACARS EVERY 10 MINUTES WHEN FLYING WITH SOUND OFF. AN NEW ACARS MESSAGE PRODUCE A SOUND SIGNAL UNTILL ITS READ. FLOWCONTROL DON'T RECEIVE MUCH REACTION ON OUTGOING ACARS MESSAGES ACCORDING FLIGHTSTATUS.
SOURCE: SPL/HV/OCC/
END VALID: UFN

REF:NIL
PLEASE CONTACT FLOWCONTROL IN CASE OF PROBLEMS WITH ROUTINGS
SOURCE: SPL/HV/OCC/
END VALID: UFN

REF:NIL
IN CASE OF ENGINE-OUT FLY V2 OR V2 20 MAX. UNTIL ABOVE MSA.
LEVEL-OFF AT AN ALTITUDE ROUNDED OFF TO THE FIRST 1000 FT OF THE HIGHEST MSA.
E.G: MSA EHAM; 1.7 AND 2.3 LEVEL-OFF 3000 FT. AFTER LANDING MAKE A REP TO OCC ON 131.975
SOURCE:SPL/HV/OCC
END VALID:UFN



flightlog:
Pilot : Tom Roek
Flight: TRA3K
From  : EIDW Dublin
To    : EHRD Rotterdam

[FLIGHTLOG] 1.5.4
13-09-2020 19:02:13z, logging started
13-09-2020 19:02:41z, parking brake released
13-09-2020 19:05:30z, flaps set to 13%
13-09-2020 19:05:39z, flaps set to 25%
13-09-2020 19:05:42z, flaps set to 38%
13-09-2020 19:10:08z, take-off at 153 KIAS
13-09-2020 19:10:08z, pos report: 153 KIAS, 00 253 ft, heading 273, winds 220 @ 05 kts
13-09-2020 19:10:08z, flying online @ VATSIM (TRA3K)
13-09-2020 19:10:08z, position: EIDW - Dublin
13-09-2020 19:10:14z, retracted gear at 161 KIAS and 110 ft AGL
13-09-2020 19:11:03z, flaps set to 25%
13-09-2020 19:11:06z, flaps set to 13%
13-09-2020 19:11:17z, flaps set to 0%
13-09-2020 19:17:13z, pos report: 296 KIAS, 18 816 ft, heading 102, winds 223 @ 49 kts
13-09-2020 19:32:14z, pos report: 245 KIAS, 39 206 ft, heading 100, winds 201 @ 53 kts
13-09-2020 19:47:16z, pos report: 245 KIAS, 39 244 ft, heading 107, winds 198 @ 51 kts
13-09-2020 20:02:16z, pos report: 259 KIAS, 19 322 ft, heading 101, winds 236 @ 29 kts
13-09-2020 20:14:53z, flaps set to 13%
13-09-2020 20:15:16z, flaps set to 25%
13-09-2020 20:15:19z, flaps set to 38%
13-09-2020 20:15:42z, flaps set to 50%
13-09-2020 20:17:14z, flaps set to 62%
13-09-2020 20:17:17z, flaps set to 75%
13-09-2020 20:17:17z, pos report: 166 KIAS, 01 946 ft, heading 236, winds 232 @ 11 kts
13-09-2020 20:17:19z, lowered gear at 163 KIAS and 1933 ft AGL
13-09-2020 20:17:44z, flaps set to 87%
13-09-2020 20:19:47z, touchdown: -150ft/m at 141 KIAS
13-09-2020 20:19:47z, pos report: 141 KIAS, -00 006 ft, heading 238, winds 270 @ 01 kts
13-09-2020 20:19:47z, flying OFFLINE
13-09-2020 20:19:47z, position: EHRD - Rotterdam
13-09-2020 20:20:34z, retracted spoilers
13-09-2020 20:20:43z, flaps set to 75%
13-09-2020 20:20:46z, flaps set to 62%
13-09-2020 20:20:49z, flaps set to 50%
13-09-2020 20:20:53z, flaps set to 38%
13-09-2020 20:20:56z, flaps set to 25%
13-09-2020 20:21:00z, flaps set to 13%
13-09-2020 20:21:08z, flaps set to 0%
13-09-2020 20:22:49z, parking brake set
13-09-2020 20:24:07z, logging ended

©2009-2020, transavia virtual. All rights reserved. This website is only meant for simulation purposes.
This website is not owned by transavia, nor is transavia responsible for the content of this website.